createdAt,value
2022-09-06T00:01:15.486Z,9.30
2022-09-06T00:03:44.609Z,9.25
2022-09-06T00:06:17.778Z,8.70
2022-09-06T00:08:47.580Z,8.80
2022-09-06T00:11:17.613Z,8.50
2022-09-06T00:13:46.903Z,9.02
2022-09-06T00:16:21.231Z,9.15
2022-09-06T00:18:53.097Z,8.40
2022-09-06T00:23:56.952Z,8.85
2022-09-06T00:26:25.918Z,9.52
2022-09-06T00:28:54.173Z,9.02
2022-09-06T00:31:25.655Z,9.57
2022-09-06T00:33:53.659Z,10.38
2022-09-06T00:36:23.913Z,9.70
2022-09-06T00:38:52.859Z,9.73
2022-09-06T00:41:20.784Z,9.15
2022-09-06T00:43:48.877Z,9.40
2022-09-06T00:46:23.776Z,9.38
2022-09-06T00:49:05.589Z,9.57
2022-09-06T00:54:05.369Z,9.32
2022-09-06T00:56:37.690Z,9.38
2022-09-06T00:59:07.193Z,9.85
2022-09-06T01:01:36.214Z,10.52
2022-09-06T01:04:04.829Z,10.38
2022-09-06T01:06:38.821Z,10.18
2022-09-06T01:09:18.503Z,10.13
2022-09-06T01:12:09.735Z,10.20
2022-09-06T01:17:58.993Z,8.73
2022-09-06T01:20:46.929Z,9.60
2022-09-06T01:23:40.709Z,9.88
2022-09-06T01:26:30.582Z,9.18
2022-09-06T01:28:59.198Z,10.07
2022-09-06T01:31:31.415Z,9.13
2022-09-06T01:34:08.941Z,9.63
2022-09-06T01:37:09.990Z,9.18
2022-09-06T01:39:41.671Z,9.23
2022-09-06T01:42:15.212Z,9.23
2022-09-06T01:44:48.170Z,8.75
2022-09-06T01:47:38.069Z,9.60
2022-09-06T01:50:20.869Z,8.98
2022-09-06T01:53:17.990Z,8.73
2022-09-06T01:56:07.630Z,9.30
2022-09-06T01:58:55.008Z,8.30
2022-09-06T02:01:34.705Z,8.98
2022-09-06T02:04:18.236Z,8.48
2022-09-06T02:06:54.760Z,9.45
2022-09-06T02:09:27.266Z,9.25
2022-09-06T02:11:59.606Z,8.68
2022-09-06T02:14:43.055Z,9.40
2022-09-06T02:17:15.618Z,8.57
2022-09-06T02:20:05.501Z,9.32
2022-09-06T02:22:41.772Z,9.07
2022-09-06T02:25:13.952Z,8.82
2022-09-06T02:27:42.344Z,8.93
2022-09-06T02:30:10.813Z,9.68
2022-09-06T02:32:59.041Z,9.15
2022-09-06T02:35:27.125Z,8.88
2022-09-06T02:37:56.528Z,9.27
2022-09-06T02:40:24.953Z,9.60
2022-09-06T02:42:54.278Z,9.35
2022-09-06T02:45:23.038Z,9.90
2022-09-06T02:47:52.311Z,9.65
2022-09-06T02:50:23.149Z,10.13
2022-09-06T02:53:06.945Z,9.90
2022-09-06T02:55:35.199Z,9.95
2022-09-06T02:58:03.571Z,9.32
2022-09-06T03:00:32.126Z,9.98
2022-09-06T03:03:01.021Z,9.90
2022-09-06T03:05:31.235Z,9.95
2022-09-06T03:08:00.498Z,9.82
2022-09-06T03:10:29.642Z,10.10
2022-09-06T03:12:58.629Z,9.93
2022-09-06T03:15:27.079Z,10.13
2022-09-06T03:17:59.578Z,9.52
2022-09-06T03:20:27.594Z,9.65
2022-09-06T03:22:56.279Z,10.48
2022-09-06T03:25:26.690Z,9.38
2022-09-06T03:27:57.624Z,9.57
2022-09-06T03:30:25.434Z,9.85
2022-09-06T03:32:54.192Z,10.75
2022-09-06T03:35:22.205Z,10.63
2022-09-06T03:37:49.998Z,9.85
2022-09-06T03:40:18.032Z,10.27
2022-09-06T03:42:52.827Z,10.73
2022-09-06T03:45:21.514Z,9.80
2022-09-06T03:47:49.406Z,10.70
2022-09-06T03:50:18.037Z,11.18
2022-09-06T03:52:49.156Z,10.73
2022-09-06T03:55:17.105Z,9.75
2022-09-06T03:57:45.117Z,10.10
2022-09-06T04:00:14.812Z,11.73
2022-09-06T04:02:43.358Z,10.65
2022-09-06T04:05:13.464Z,11.30
2022-09-06T04:07:44.174Z,10.45
2022-09-06T04:10:12.993Z,10.38
2022-09-06T04:12:41.029Z,10.75
2022-09-06T04:15:10.340Z,9.63
2022-09-06T04:17:39.300Z,10.55
2022-09-06T04:20:07.855Z,10.18
2022-09-06T04:22:36.275Z,10.75
2022-09-06T04:25:05.104Z,9.55
2022-09-06T04:27:34.020Z,9.63
2022-09-06T04:30:03.341Z,9.60
2022-09-06T04:32:34.117Z,10.32
2022-09-06T04:35:05.489Z,10.75
2022-09-06T04:37:34.733Z,10.07
2022-09-06T04:40:03.828Z,11.52
2022-09-06T04:42:35.311Z,10.13
2022-09-06T04:45:04.228Z,11.50
2022-09-06T04:47:32.419Z,10.60
2022-09-06T04:50:00.600Z,10.70
2022-09-06T04:52:30.434Z,11.77
2022-09-06T04:54:59.157Z,9.77
2022-09-06T04:57:30.990Z,11.65
2022-09-06T04:59:59.803Z,10.77
2022-09-06T05:02:28.269Z,10.65
2022-09-06T05:04:59.081Z,10.75
2022-09-06T05:07:29.991Z,11.15
2022-09-06T05:10:01.449Z,11.70
2022-09-06T05:12:31.779Z,11.90
2022-09-06T05:15:02.417Z,11.50
2022-09-06T05:17:31.529Z,11.38
2022-09-06T05:19:59.425Z,11.60
2022-09-06T05:22:28.551Z,11.15
2022-09-06T05:24:58.919Z,10.32
2022-09-06T05:27:29.460Z,11.73
2022-09-06T05:29:57.378Z,11.23
2022-09-06T05:32:43.604Z,12.20
2022-09-06T05:35:14.384Z,11.38
2022-09-06T05:37:42.506Z,11.10
2022-09-06T05:40:12.537Z,10.88
2022-09-06T05:42:41.493Z,11.05
2022-09-06T05:45:14.539Z,11.38
2022-09-06T05:47:44.007Z,11.38
2022-09-06T05:50:12.136Z,11.85
2022-09-06T05:52:43.027Z,11.88
2022-09-06T05:55:12.015Z,11.40
2022-09-06T05:57:42.529Z,11.38
2022-09-06T06:00:12.225Z,10.82
2022-09-06T06:02:41.329Z,11.30
2022-09-06T06:05:13.037Z,11.45
2022-09-06T06:07:44.139Z,12.48
2022-09-06T06:10:21.016Z,11.70
2022-09-06T06:12:50.184Z,11.25
2022-09-06T06:15:18.130Z,12.85
2022-09-06T06:17:46.090Z,11.68
2022-09-06T06:20:15.148Z,12.38
2022-09-06T06:22:43.545Z,11.73
2022-09-06T06:25:14.765Z,12.43
2022-09-06T06:27:44.185Z,11.35
2022-09-06T06:30:17.785Z,10.90
2022-09-06T06:32:47.271Z,13.32
2022-09-06T06:35:15.831Z,11.30
2022-09-06T06:37:45.900Z,12.27
2022-09-06T06:40:14.403Z,11.93
2022-09-06T06:42:44.662Z,12.03
2022-09-06T06:45:12.791Z,11.43
2022-09-06T06:47:42.495Z,11.77
2022-09-06T06:50:11.685Z,11.68
2022-09-06T06:52:42.731Z,11.65
2022-09-06T06:55:11.527Z,11.32
2022-09-06T06:57:39.590Z,10.52
2022-09-06T07:00:09.534Z,11.68
2022-09-06T07:02:39.065Z,10.40
2022-09-06T07:07:56.379Z,11.52
2022-09-06T07:10:34.476Z,10.68
2022-09-06T07:13:06.660Z,10.15
2022-09-06T07:15:35.223Z,10.63
2022-09-06T07:18:03.347Z,10.68
2022-09-06T07:20:31.981Z,11.40
2022-09-06T07:26:19.372Z,9.52
2022-09-06T07:28:48.715Z,10.38
2022-09-06T07:34:05.932Z,10.02
2022-09-06T07:36:37.481Z,9.93
2022-09-06T07:39:06.194Z,8.93
2022-09-06T07:41:34.889Z,9.32
2022-09-06T07:44:04.222Z,7.18
2022-09-06T07:46:32.907Z,6.72
2022-09-06T07:49:03.667Z,6.60
2022-09-06T07:51:32.807Z,7.00
2022-09-06T07:54:29.235Z,6.05
2022-09-06T07:56:53.438Z,5.72
2022-09-06T07:59:22.045Z,5.40
2022-09-06T08:01:51.034Z,5.50
2022-09-06T08:04:20.368Z,5.25
2022-09-06T08:09:43.319Z,6.43
2022-09-06T08:12:11.299Z,6.00
2022-09-06T08:14:41.847Z,5.35
2022-09-06T08:17:11.168Z,4.97
2022-09-06T08:19:39.410Z,6.13
2022-09-06T08:22:08.179Z,5.25
2022-09-06T08:24:36.600Z,5.30
2022-09-06T08:27:11.465Z,5.97
2022-09-06T08:29:40.451Z,5.93
2022-09-06T08:32:09.087Z,5.15
2022-09-06T08:34:37.772Z,5.47
2022-09-06T08:37:09.265Z,5.25
2022-09-06T08:39:39.127Z,5.22
2022-09-06T08:42:08.965Z,5.75
2022-09-06T08:47:28.054Z,5.50
2022-09-06T08:50:08.674Z,5.47
2022-09-06T08:53:17.986Z,5.30
2022-09-06T08:59:05.056Z,5.32
2022-09-06T09:01:57.719Z,4.88
2022-09-06T09:04:28.671Z,5.68
2022-09-06T09:07:08.062Z,5.85
2022-09-06T09:09:37.021Z,5.80
2022-09-06T09:12:06.646Z,5.22
2022-09-06T09:14:38.171Z,4.97
2022-09-06T09:17:20.432Z,4.75
2022-09-06T09:19:49.330Z,5.45
2022-09-06T09:22:19.974Z,5.55
2022-09-06T09:24:52.007Z,5.15
2022-09-06T09:27:26.051Z,6.35
2022-09-06T09:32:48.183Z,5.38
2022-09-06T09:35:43.716Z,5.65
2022-09-06T09:38:39.840Z,5.15
2022-09-06T09:41:09.760Z,6.13
2022-09-06T09:43:53.770Z,5.38
2022-09-06T09:46:25.546Z,5.20
2022-09-06T09:49:26.662Z,5.10
2022-09-06T09:52:14.111Z,6.18
2022-09-06T09:54:46.827Z,4.78
2022-09-06T09:57:18.858Z,5.28
2022-09-06T09:59:54.265Z,5.57
2022-09-06T10:02:27.696Z,5.45
2022-09-06T10:05:06.856Z,5.68
2022-09-06T10:07:43.060Z,5.43
2022-09-06T10:10:15.428Z,5.78
2022-09-06T10:12:46.404Z,5.50
2022-09-06T10:18:32.973Z,5.77
2022-09-06T10:21:24.105Z,5.68
2022-09-06T10:24:40.684Z,5.28
2022-09-06T10:27:12.274Z,4.90
2022-09-06T10:30:09.927Z,5.22
2022-09-06T10:33:20.199Z,5.43
2022-09-06T10:35:49.238Z,4.72
2022-09-06T10:38:24.867Z,6.38
2022-09-06T10:40:58.063Z,5.60
2022-09-06T10:43:33.010Z,5.00
2022-09-06T10:46:09.591Z,5.80
2022-09-06T10:49:28.826Z,5.07
2022-09-06T10:52:03.521Z,4.88
2022-09-06T10:54:36.176Z,4.43
2022-09-06T11:00:14.741Z,5.40
2022-09-06T11:05:59.247Z,5.30
2022-09-06T11:08:57.756Z,5.72
2022-09-06T11:12:05.298Z,5.13
2022-09-06T11:14:35.931Z,5.20
2022-09-06T11:17:20.626Z,4.70
2022-09-06T11:20:07.838Z,5.18
2022-09-06T11:22:56.406Z,4.63
2022-09-06T11:25:57.410Z,4.60
2022-09-06T11:28:43.934Z,4.30
2022-09-06T11:34:31.497Z,5.90
2022-09-06T11:37:07.282Z,4.67
2022-09-06T11:42:47.914Z,4.55
2022-09-06T11:45:40.730Z,4.95
2022-09-06T11:48:26.944Z,4.75
2022-09-06T11:50:58.939Z,4.65
2022-09-06T11:53:34.279Z,4.80
2022-09-06T11:56:02.399Z,4.55
2022-09-06T11:58:40.249Z,4.00
2022-09-06T12:01:16.744Z,4.50
2022-09-06T12:04:06.173Z,4.53
2022-09-06T12:07:02.937Z,4.95
2022-09-06T12:09:34.632Z,5.05
2022-09-06T12:12:04.590Z,5.20
2022-09-06T12:14:37.095Z,4.50
2022-09-06T12:17:07.418Z,4.03
2022-09-06T12:19:59.662Z,4.28
2022-09-06T12:22:31.544Z,4.20
2022-09-06T12:25:04.652Z,3.95
2022-09-06T12:27:39.856Z,4.30
2022-09-06T12:30:12.490Z,4.53
2022-09-06T12:32:45.418Z,4.00
2022-09-06T12:38:08.221Z,4.43
2022-09-06T12:40:54.989Z,4.07
2022-09-06T12:43:23.547Z,4.20
2022-09-06T12:45:53.054Z,3.78
2022-09-06T12:48:35.590Z,4.03
2022-09-06T12:51:19.864Z,3.90
2022-09-06T12:53:52.793Z,3.45
2022-09-06T12:56:23.871Z,4.03
2022-09-06T12:58:54.499Z,4.33
2022-09-06T13:01:35.450Z,4.05
2022-09-06T13:04:19.307Z,4.20
2022-09-06T13:06:48.926Z,3.80
2022-09-06T13:09:22.390Z,3.88
2022-09-06T13:11:56.609Z,3.30
2022-09-06T13:14:27.909Z,4.13
2022-09-06T13:16:57.362Z,3.53
2022-09-06T13:19:29.290Z,4.35
2022-09-06T13:22:03.027Z,3.40
2022-09-06T13:24:35.157Z,3.50
2022-09-06T13:27:24.070Z,3.75
2022-09-06T13:30:00.816Z,3.10
2022-09-06T13:32:30.905Z,3.47
2022-09-06T13:35:01.331Z,3.20
2022-09-06T13:37:36.407Z,3.60
2022-09-06T13:41:06.961Z,3.20
2022-09-06T13:43:45.172Z,3.55
2022-09-06T13:46:22.554Z,3.85
2022-09-06T13:48:58.556Z,3.65
2022-09-06T13:53:43.486Z,2.83
2022-09-06T13:56:13.775Z,3.20
2022-09-06T13:58:47.284Z,3.80
2022-09-06T14:01:19.508Z,3.42
2022-09-06T14:03:49.921Z,4.38
2022-09-06T14:06:19.282Z,4.28
2022-09-06T14:09:07.403Z,3.38
2022-09-06T14:11:37.101Z,4.03
2022-09-06T14:14:06.016Z,3.40
2022-09-06T14:16:34.689Z,3.25
2022-09-06T14:19:04.731Z,3.30
2022-09-06T14:21:34.899Z,3.05
2022-09-06T14:24:04.718Z,3.20
2022-09-06T14:26:35.863Z,3.28
2022-09-06T14:29:05.539Z,3.60
2022-09-06T14:31:34.272Z,3.40
2022-09-06T14:34:04.265Z,3.85
2022-09-06T14:36:34.576Z,3.75
2022-09-06T14:39:06.366Z,3.78
2022-09-06T14:41:35.840Z,3.95
2022-09-06T14:44:06.284Z,4.43
2022-09-06T14:46:35.289Z,4.35
2022-09-06T14:49:10.311Z,3.42
2022-09-06T14:51:41.711Z,3.90
2022-09-06T14:54:12.993Z,3.75
2022-09-06T15:01:43.149Z,3.55
2022-09-06T15:04:12.526Z,4.15
2022-09-06T15:06:44.987Z,3.97
2022-09-06T15:09:15.365Z,3.80
2022-09-06T15:11:47.145Z,3.72
2022-09-06T15:14:26.567Z,4.03
2022-09-06T15:17:00.197Z,3.90
2022-09-06T15:19:34.030Z,4.13
2022-09-06T15:22:06.808Z,4.40
2022-09-06T15:24:36.893Z,3.55
2022-09-06T15:27:05.444Z,3.85
2022-09-06T15:29:34.881Z,4.60
2022-09-06T15:32:03.460Z,3.90
2022-09-06T15:34:32.372Z,4.28
2022-09-06T15:37:01.397Z,4.03
2022-09-06T15:39:30.092Z,3.85
2022-09-06T15:41:58.906Z,3.80
2022-09-06T15:44:28.753Z,4.40
2022-09-06T15:46:59.243Z,3.83
2022-09-06T15:49:31.852Z,4.75
2022-09-06T15:52:02.738Z,4.00
2022-09-06T15:54:50.068Z,4.25
2022-09-06T15:57:20.373Z,4.50
2022-09-06T15:59:49.358Z,4.90
2022-09-06T16:02:24.138Z,4.60
2022-09-06T16:04:52.320Z,5.00
2022-09-06T16:07:20.696Z,4.80
2022-09-06T16:09:54.422Z,4.18
2022-09-06T16:12:23.371Z,5.35
2022-09-06T16:14:52.889Z,4.95
2022-09-06T16:17:22.049Z,4.43
2022-09-06T16:19:50.125Z,5.30
2022-09-06T16:22:19.026Z,5.60
2022-09-06T16:24:48.165Z,5.82
2022-09-06T16:27:19.243Z,6.05
2022-09-06T16:29:50.638Z,6.00
2022-09-06T16:32:21.552Z,4.88
2022-09-06T16:34:53.131Z,5.53
2022-09-06T16:37:21.462Z,5.47
2022-09-06T16:39:49.940Z,6.28
2022-09-06T16:42:21.801Z,6.28
2022-09-06T16:44:50.215Z,6.22
2022-09-06T16:47:18.764Z,5.00
2022-09-06T16:49:50.673Z,5.13
2022-09-06T16:52:19.993Z,5.88
2022-09-06T16:54:49.713Z,5.55
2022-09-06T16:57:22.349Z,5.43
2022-09-06T16:59:51.583Z,5.00
2022-09-06T17:02:22.460Z,4.30
2022-09-06T17:04:51.137Z,4.30
2022-09-06T17:07:19.393Z,4.95
2022-09-06T17:09:48.085Z,4.43
2022-09-06T17:12:16.775Z,4.35
2022-09-06T17:14:46.042Z,4.40
2022-09-06T17:17:16.587Z,4.57
2022-09-06T17:19:50.681Z,4.55
2022-09-06T17:22:19.612Z,4.43
2022-09-06T17:24:47.740Z,4.18
2022-09-06T17:27:16.764Z,4.03
2022-09-06T17:29:47.629Z,4.28
2022-09-06T17:32:19.791Z,4.13
2022-09-06T17:34:48.556Z,4.65
2022-09-06T17:37:17.133Z,3.85
2022-09-06T17:39:45.163Z,3.55
2022-09-06T17:42:15.635Z,4.40
2022-09-06T17:44:46.535Z,3.77
2022-09-06T17:47:17.694Z,4.22
2022-09-06T17:49:45.753Z,3.65
2022-09-06T17:52:14.039Z,4.30
2022-09-06T17:54:47.187Z,4.18
2022-09-06T17:57:15.723Z,3.88
2022-09-06T17:59:44.081Z,3.58
2022-09-06T18:02:13.279Z,3.40
2022-09-06T18:04:41.660Z,4.22
2022-09-06T18:07:10.774Z,4.40
2022-09-06T18:09:40.658Z,4.10
2022-09-06T18:12:09.351Z,4.13
2022-09-06T18:14:38.470Z,4.25
2022-09-06T18:17:08.514Z,3.95
2022-09-06T18:19:40.634Z,5.03
2022-09-06T18:22:14.170Z,4.05
2022-09-06T18:24:42.986Z,3.78
2022-09-06T18:27:11.559Z,4.38
2022-09-06T18:29:40.131Z,5.32
2022-09-06T18:32:09.370Z,4.18
2022-09-06T18:34:39.955Z,4.78
2022-09-06T18:37:10.895Z,5.05
2022-09-06T18:39:39.716Z,4.80
2022-09-06T18:42:11.324Z,4.28
2022-09-06T18:44:40.735Z,3.95
2022-09-06T18:49:44.248Z,5.22
2022-09-06T18:52:12.887Z,4.22
2022-09-06T18:54:41.247Z,3.60
2022-09-06T18:57:10.523Z,4.25
2022-09-06T18:59:42.110Z,4.47
2022-09-06T19:02:11.581Z,3.63
2022-09-06T19:04:39.903Z,5.22
2022-09-06T19:07:08.263Z,3.90
2022-09-06T19:09:38.194Z,3.78
2022-09-06T19:12:08.091Z,3.67
2022-09-06T19:14:36.450Z,3.92
2022-09-06T19:17:05.675Z,3.30
2022-09-06T19:19:34.876Z,3.53
2022-09-06T19:22:03.256Z,3.45
2022-09-06T19:24:32.988Z,3.63
2022-09-06T19:27:03.623Z,3.53
2022-09-06T19:29:36.537Z,3.70
2022-09-06T19:32:09.246Z,4.03
2022-09-06T19:34:38.034Z,3.05
2022-09-06T19:37:07.489Z,3.53
2022-09-06T19:39:39.387Z,3.20
2022-09-06T19:42:08.319Z,3.30
2022-09-06T19:44:37.461Z,2.80
2022-09-06T19:47:07.338Z,2.95
2022-09-06T19:49:35.728Z,3.30
2022-09-06T19:52:09.653Z,3.53
2022-09-06T19:54:41.077Z,2.83
2022-09-06T19:57:11.131Z,3.50
2022-09-06T19:59:40.519Z,2.75
2022-09-06T20:02:09.657Z,2.67
2022-09-06T20:05:32.673Z,3.03
2022-09-06T20:08:01.323Z,3.67
2022-09-06T20:10:29.794Z,3.45
2022-09-06T20:12:57.757Z,3.25
2022-09-06T20:15:27.015Z,3.55
2022-09-06T20:17:55.238Z,2.88
2022-09-06T20:20:23.941Z,3.03
2022-09-06T20:22:52.059Z,3.78
2022-09-06T20:25:21.716Z,3.22
2022-09-06T20:27:49.984Z,3.05
2022-09-06T20:30:18.699Z,3.30
2022-09-06T20:32:47.081Z,3.65
2022-09-06T20:35:15.435Z,2.97
2022-09-06T20:37:43.975Z,3.00
2022-09-06T20:40:13.158Z,2.83
2022-09-06T20:42:43.729Z,3.50
2022-09-06T20:45:13.004Z,2.70
2022-09-06T20:47:41.960Z,3.33
2022-09-06T20:50:11.441Z,3.38
2022-09-06T20:52:40.595Z,2.50
2022-09-06T20:55:09.473Z,2.63
2022-09-06T20:57:38.186Z,3.17
2022-09-06T21:00:07.986Z,3.08
2022-09-06T21:05:05.406Z,3.40
2022-09-06T21:07:33.566Z,3.08
2022-09-06T21:10:02.025Z,3.85
2022-09-06T21:12:30.336Z,3.45
2022-09-06T21:14:59.499Z,3.88
2022-09-06T21:17:27.266Z,3.30
2022-09-06T21:19:55.528Z,3.75
2022-09-06T21:22:23.613Z,3.70
2022-09-06T21:24:51.889Z,3.97
2022-09-06T21:27:20.145Z,4.55
2022-09-06T21:29:48.861Z,3.33
2022-09-06T21:32:17.281Z,3.70
2022-09-06T21:34:45.218Z,3.45
2022-09-06T21:37:14.547Z,3.53
2022-09-06T21:39:42.739Z,3.47
2022-09-06T21:42:11.227Z,3.58
2022-09-06T21:44:40.416Z,3.03
2022-09-06T21:47:08.284Z,3.67
2022-09-06T21:49:36.635Z,3.28
2022-09-06T21:52:05.722Z,3.30
2022-09-06T21:54:33.705Z,3.58
2022-09-06T21:57:01.652Z,3.45
2022-09-06T21:59:29.674Z,3.08
2022-09-06T22:01:58.825Z,3.78
2022-09-06T22:04:26.882Z,3.42
2022-09-06T22:06:55.425Z,3.30
2022-09-06T22:09:24.028Z,3.17
2022-09-06T22:11:52.299Z,3.63
2022-09-06T22:14:20.378Z,3.10
2022-09-06T22:16:49.689Z,3.30
2022-09-06T22:19:19.697Z,3.47
2022-09-06T22:21:48.239Z,3.00
2022-09-06T22:24:17.539Z,3.25
2022-09-06T22:26:45.960Z,4.15
2022-09-06T22:29:15.432Z,3.50
2022-09-06T22:31:43.820Z,3.63
2022-09-06T22:34:11.773Z,3.10
2022-09-06T22:36:39.903Z,3.58
2022-09-06T22:39:09.615Z,3.50
2022-09-06T22:41:37.765Z,3.45
2022-09-06T22:44:06.023Z,2.85
2022-09-06T22:46:34.019Z,3.40
2022-09-06T22:49:04.041Z,3.28
2022-09-06T22:51:32.939Z,3.03
2022-09-06T22:54:04.672Z,3.03
2022-09-06T22:56:33.542Z,3.15
2022-09-06T22:59:01.692Z,3.05
2022-09-06T23:01:30.112Z,3.40
2022-09-06T23:03:58.975Z,3.25
2022-09-06T23:06:27.867Z,3.35
2022-09-06T23:08:56.194Z,3.10
2022-09-06T23:11:24.367Z,3.50
2022-09-06T23:13:56.502Z,2.55
2022-09-06T23:16:25.448Z,3.20
2022-09-06T23:18:54.709Z,2.90
2022-09-06T23:21:27.143Z,3.40
2022-09-06T23:23:57.242Z,3.33
2022-09-06T23:26:29.178Z,2.97
2022-09-06T23:28:57.968Z,2.70
2022-09-06T23:31:27.945Z,3.15
2022-09-06T23:33:57.383Z,3.95
2022-09-06T23:36:26.244Z,2.85
2022-09-06T23:38:54.406Z,3.08
2022-09-06T23:41:22.478Z,2.90
2022-09-06T23:43:52.056Z,3.63
2022-09-06T23:46:20.944Z,2.60
2022-09-06T23:48:48.864Z,2.72
2022-09-06T23:51:17.818Z,2.42
2022-09-06T23:53:46.702Z,2.53
2022-09-06T23:56:15.793Z,2.97
2022-09-06T23:58:44.366Z,2.65
